createdAt,value
2023-03-24T00:01:27.469Z,7.10
2023-03-24T00:03:55.645Z,7.11
2023-03-24T00:06:24.100Z,7.13
2023-03-24T00:08:53.501Z,7.13
2023-03-24T00:11:21.748Z,7.13
2023-03-24T00:13:50.873Z,7.13
2023-03-24T00:16:22.181Z,7.11
2023-03-24T00:18:54.048Z,7.10
2023-03-24T00:21:24.881Z,7.08
2023-03-24T00:23:55.664Z,7.07
2023-03-24T00:26:25.758Z,7.04
2023-03-24T00:28:55.867Z,7.00
2023-03-24T00:31:25.137Z,6.96
2023-03-24T00:33:54.421Z,6.93
2023-03-24T00:36:25.985Z,6.90
2023-03-24T00:38:56.910Z,6.89
2023-03-24T00:41:27.277Z,6.88
2023-03-24T00:43:58.797Z,6.87
2023-03-24T00:46:27.813Z,6.86
2023-03-24T00:49:06.221Z,6.86
2023-03-24T00:51:38.798Z,6.84
2023-03-24T00:54:09.431Z,6.82
2023-03-24T00:56:40.840Z,6.80
2023-03-24T00:59:10.986Z,6.79
2023-03-24T01:01:41.501Z,6.77
2023-03-24T01:04:10.712Z,6.75
2023-03-24T01:06:41.300Z,6.72
2023-03-24T01:09:10.786Z,6.68
2023-03-24T01:11:41.767Z,6.64
2023-03-24T01:14:11.857Z,6.60
2023-03-24T01:16:42.370Z,6.57
2023-03-24T01:19:10.623Z,6.54
2023-03-24T01:21:39.694Z,6.53
2023-03-24T01:24:08.520Z,6.52
2023-03-24T01:26:36.909Z,6.53
2023-03-24T01:29:06.282Z,6.52
2023-03-24T01:31:35.097Z,6.55
2023-03-24T01:34:03.577Z,6.55
2023-03-24T01:36:31.826Z,6.56
2023-03-24T01:39:01.525Z,6.56
2023-03-24T01:41:35.156Z,6.55
2023-03-24T01:44:40.950Z,6.53
2023-03-24T01:47:09.135Z,6.51
2023-03-24T01:49:46.373Z,6.47
2023-03-24T01:52:19.551Z,6.43
2023-03-24T01:54:53.361Z,6.39
2023-03-24T01:57:26.754Z,6.36
2023-03-24T01:59:59.076Z,6.32
2023-03-24T02:02:49.664Z,6.28
2023-03-24T02:05:23.338Z,6.25
2023-03-24T02:08:30.719Z,6.23
2023-03-24T02:11:01.463Z,6.21
2023-03-24T02:13:36.627Z,6.21
2023-03-24T02:16:19.965Z,6.21
2023-03-24T02:18:52.947Z,6.19
2023-03-24T02:21:42.447Z,6.17
2023-03-24T02:24:38.516Z,6.12
2023-03-24T02:27:19.295Z,6.07
2023-03-24T02:29:50.681Z,6.00
2023-03-24T02:32:36.160Z,5.93
2023-03-24T02:35:22.361Z,5.86
2023-03-24T02:38:03.528Z,5.78
2023-03-24T02:40:49.536Z,5.69
2023-03-24T02:43:46.724Z,5.62
2023-03-24T02:46:24.506Z,5.57
2023-03-24T02:49:09.821Z,5.55
2023-03-24T02:52:00.105Z,5.53
2023-03-24T02:54:50.591Z,5.54
2023-03-24T02:57:43.003Z,5.54
2023-03-24T03:00:42.341Z,5.54
2023-03-24T03:03:19.770Z,5.52
2023-03-24T03:06:03.294Z,5.49
2023-03-24T03:08:34.102Z,5.45
2023-03-24T03:11:05.758Z,5.40
2023-03-24T03:13:44.703Z,5.35
2023-03-24T03:16:41.532Z,5.30
2023-03-24T03:19:18.224Z,5.26
2023-03-24T03:21:49.765Z,5.19
2023-03-24T03:24:27.330Z,5.13
2023-03-24T03:27:08.569Z,5.07
2023-03-24T03:29:43.545Z,5.02
2023-03-24T03:32:18.239Z,4.99
2023-03-24T03:34:55.770Z,4.97
2023-03-24T03:37:32.884Z,4.96
2023-03-24T03:40:12.339Z,4.97
2023-03-24T03:42:43.460Z,5.00
2023-03-24T03:45:12.680Z,5.03
2023-03-24T03:47:41.669Z,5.02
2023-03-24T03:50:10.918Z,5.00
2023-03-24T03:52:40.273Z,4.97
2023-03-24T03:55:09.662Z,4.94
2023-03-24T03:57:39.403Z,4.91
2023-03-24T04:00:20.586Z,4.88
2023-03-24T04:03:18.410Z,4.83
2023-03-24T04:06:13.962Z,4.81
2023-03-24T04:08:51.648Z,4.80
2023-03-24T04:11:40.760Z,4.79
2023-03-24T04:14:20.886Z,4.81
2023-03-24T04:17:21.239Z,4.83
2023-03-24T04:20:21.308Z,4.85
2023-03-24T04:23:03.340Z,4.87
2023-03-24T04:25:50.911Z,4.86
2023-03-24T04:28:28.385Z,4.83
2023-03-24T04:31:23.663Z,4.79
2023-03-24T04:33:58.509Z,4.77
2023-03-24T04:36:56.745Z,4.74
2023-03-24T04:39:29.967Z,4.74
2023-03-24T04:42:04.864Z,4.76
2023-03-24T04:44:34.455Z,4.80
2023-03-24T04:47:27.175Z,4.87
2023-03-24T04:50:11.752Z,4.95
2023-03-24T04:52:42.683Z,5.04
2023-03-24T04:55:49.761Z,5.14
2023-03-24T04:58:23.356Z,5.28
2023-03-24T05:00:52.134Z,5.44
2023-03-24T05:03:20.413Z,5.69
2023-03-24T05:05:50.797Z,6.27
2023-03-24T05:08:21.031Z,6.99
2023-03-24T05:10:49.798Z,7.68
2023-03-24T05:13:18.007Z,8.31
2023-03-24T05:16:01.696Z,8.88
2023-03-24T05:18:42.278Z,9.35
2023-03-24T05:21:10.728Z,9.83
2023-03-24T05:23:39.463Z,10.16
2023-03-24T05:26:08.139Z,10.50
2023-03-24T05:28:44.669Z,10.72
2023-03-24T05:31:13.490Z,10.85
2023-03-24T05:33:57.877Z,11.00
2023-03-24T05:36:29.169Z,10.99
2023-03-24T05:38:59.063Z,10.86
2023-03-24T05:41:36.311Z,10.76
2023-03-24T05:44:04.480Z,10.75
2023-03-24T05:46:32.739Z,10.65
2023-03-24T05:49:02.322Z,10.57
2023-03-24T05:51:36.363Z,10.48
2023-03-24T05:54:07.610Z,10.55
2023-03-24T05:56:42.380Z,10.65
2023-03-24T05:59:31.902Z,11.03
2023-03-24T06:02:38.021Z,11.68
2023-03-24T06:05:13.655Z,12.18
2023-03-24T06:07:46.633Z,12.50
2023-03-24T06:10:18.404Z,12.78
2023-03-24T06:12:53.782Z,12.88
2023-03-24T06:15:24.615Z,13.06
2023-03-24T06:17:55.471Z,13.27
2023-03-24T06:20:32.065Z,13.50
2023-03-24T06:23:12.864Z,13.77
2023-03-24T06:25:56.305Z,14.01
2023-03-24T06:28:30.650Z,14.16
2023-03-24T06:31:01.131Z,14.15
2023-03-24T06:33:37.318Z,14.24
2023-03-24T06:36:06.937Z,14.40
2023-03-24T06:38:35.922Z,14.54
2023-03-24T06:41:05.859Z,14.64
2023-03-24T06:43:34.375Z,14.79
2023-03-24T06:46:02.647Z,14.81
2023-03-24T06:48:33.995Z,14.69
2023-03-24T06:51:04.686Z,14.83
2023-03-24T06:53:33.188Z,15.06
2023-03-24T06:56:01.948Z,15.38
2023-03-24T06:58:36.015Z,15.73
2023-03-24T07:01:09.667Z,15.99
2023-03-24T07:03:48.516Z,16.14
2023-03-24T07:06:26.304Z,16.18
2023-03-24T07:08:58.133Z,16.25
2023-03-24T07:11:28.747Z,16.42
2023-03-24T07:14:01.140Z,16.71
2023-03-24T07:16:30.794Z,16.93
2023-03-24T07:19:11.507Z,17.05
2023-03-24T07:21:41.173Z,16.92
2023-03-24T07:24:09.643Z,16.83
2023-03-24T07:26:51.601Z,16.90
2023-03-24T07:29:23.013Z,17.14
2023-03-24T07:32:10.372Z,17.47
2023-03-24T07:34:39.612Z,17.69
2023-03-24T07:37:08.095Z,17.80
2023-03-24T07:39:36.438Z,17.96
2023-03-24T07:42:06.232Z,18.09
2023-03-24T07:44:43.315Z,18.17
2023-03-24T07:47:13.436Z,18.29
2023-03-24T07:49:41.757Z,18.36
2023-03-24T07:52:12.117Z,18.36
2023-03-24T07:54:44.501Z,18.09
2023-03-24T07:57:20.769Z,17.89
2023-03-24T07:59:49.372Z,17.85
2023-03-24T08:02:25.442Z,17.56
2023-03-24T08:05:18.872Z,17.27
2023-03-24T08:08:10.104Z,17.03
2023-03-24T08:10:38.665Z,16.74
2023-03-24T08:13:07.050Z,16.55
2023-03-24T08:15:35.404Z,16.48
2023-03-24T08:18:04.333Z,16.44
2023-03-24T08:20:32.684Z,16.39
2023-03-24T08:23:05.022Z,16.29
2023-03-24T08:25:35.359Z,16.19
2023-03-24T08:28:04.624Z,16.06
2023-03-24T08:30:33.467Z,15.88
2023-03-24T08:33:03.561Z,15.82
2023-03-24T08:35:34.743Z,15.76
2023-03-24T08:38:06.579Z,15.58
2023-03-24T08:40:36.825Z,15.40
2023-03-24T08:43:10.184Z,15.30
2023-03-24T08:45:38.660Z,15.15
2023-03-24T08:48:08.824Z,15.06
2023-03-24T08:50:41.129Z,15.15
2023-03-24T08:53:12.553Z,15.25
2023-03-24T08:55:43.498Z,15.38
2023-03-24T08:58:18.424Z,15.56
2023-03-24T09:00:48.763Z,15.75
2023-03-24T09:03:23.017Z,15.86
2023-03-24T09:05:51.666Z,15.97
2023-03-24T09:08:20.480Z,16.10
2023-03-24T09:10:49.333Z,16.21
2023-03-24T09:13:18.945Z,16.36
2023-03-24T09:15:50.221Z,16.54
2023-03-24T09:18:20.247Z,16.74
2023-03-24T09:20:48.770Z,16.93
2023-03-24T09:23:18.040Z,17.07
2023-03-24T09:25:48.646Z,17.18
2023-03-24T09:28:17.316Z,17.35
2023-03-24T09:30:45.769Z,17.52
2023-03-24T09:33:14.095Z,17.65
2023-03-24T09:35:42.575Z,17.72
2023-03-24T09:38:13.665Z,17.83
2023-03-24T09:40:43.754Z,17.93
2023-03-24T09:43:34.202Z,18.02
2023-03-24T09:46:05.336Z,18.12
2023-03-24T09:48:33.815Z,18.30
2023-03-24T09:51:13.654Z,18.41
2023-03-24T09:54:09.522Z,18.65
2023-03-24T09:56:39.942Z,18.85
2023-03-24T09:59:16.322Z,18.98
2023-03-24T10:01:45.636Z,19.13
2023-03-24T10:04:21.407Z,19.28
2023-03-24T10:06:57.605Z,19.37
2023-03-24T10:09:32.126Z,19.47
2023-03-24T10:12:19.073Z,19.54
2023-03-24T10:15:16.215Z,19.52
2023-03-24T10:18:35.035Z,19.49
2023-03-24T10:21:22.807Z,19.48
2023-03-24T10:24:06.147Z,19.48
2023-03-24T10:27:03.057Z,19.52
2023-03-24T10:29:36.096Z,19.54
2023-03-24T10:32:12.672Z,19.59
2023-03-24T10:34:44.922Z,19.71
2023-03-24T10:37:16.576Z,19.73
2023-03-24T10:39:45.386Z,19.82
2023-03-24T10:42:18.988Z,19.88
2023-03-24T10:44:49.990Z,19.90
2023-03-24T10:47:24.497Z,19.92
2023-03-24T10:50:14.090Z,19.97
2023-03-24T10:52:48.963Z,19.94
2023-03-24T10:55:19.956Z,19.95
2023-03-24T10:57:53.829Z,19.96
2023-03-24T11:00:30.138Z,20.00
2023-03-24T11:03:07.089Z,20.03
2023-03-24T11:05:39.390Z,19.98
2023-03-24T11:08:23.087Z,19.94
2023-03-24T11:10:51.613Z,20.06
2023-03-24T11:13:22.928Z,20.10
2023-03-24T11:16:06.032Z,20.08
2023-03-24T11:18:34.753Z,20.10
2023-03-24T11:21:05.452Z,20.16
2023-03-24T11:23:39.442Z,20.26
2023-03-24T11:26:16.935Z,20.22
2023-03-24T11:28:53.521Z,20.15
2023-03-24T11:31:31.285Z,20.24
2023-03-24T11:34:10.146Z,20.27
2023-03-24T11:36:45.344Z,20.19
2023-03-24T11:39:28.815Z,20.17
2023-03-24T11:42:02.706Z,20.18
2023-03-24T11:44:38.406Z,20.21
2023-03-24T11:47:13.036Z,20.24
2023-03-24T11:50:12.218Z,20.21
2023-03-24T11:52:55.649Z,20.20
2023-03-24T11:55:29.155Z,20.21
2023-03-24T11:58:23.565Z,20.22
2023-03-24T12:00:59.035Z,20.26
2023-03-24T12:03:36.273Z,20.33
2023-03-24T12:06:20.628Z,20.48
2023-03-24T12:09:11.705Z,20.61
2023-03-24T12:12:18.831Z,20.64
2023-03-24T12:15:28.465Z,20.67
2023-03-24T12:18:26.316Z,20.78
2023-03-24T12:21:08.007Z,20.89
2023-03-24T12:24:06.275Z,20.98
2023-03-24T12:26:35.258Z,21.07
2023-03-24T12:29:41.762Z,21.13
2023-03-24T12:32:52.854Z,21.13
2023-03-24T12:35:28.395Z,21.13
2023-03-24T12:38:24.302Z,21.10
2023-03-24T12:41:13.566Z,21.10
2023-03-24T12:43:51.623Z,21.09
2023-03-24T12:46:22.784Z,21.04
2023-03-24T12:49:03.350Z,21.00
2023-03-24T12:52:15.304Z,20.94
2023-03-24T12:54:52.139Z,20.88
2023-03-24T12:57:26.583Z,20.84
2023-03-24T13:00:01.806Z,20.79
2023-03-24T13:02:38.505Z,20.78
2023-03-24T13:05:16.920Z,20.82
2023-03-24T13:07:54.286Z,20.83
2023-03-24T13:10:27.258Z,20.78
2023-03-24T13:12:58.493Z,20.75
2023-03-24T13:15:46.300Z,20.73
2023-03-24T13:18:20.443Z,20.74
2023-03-24T13:21:00.860Z,20.74
2023-03-24T13:23:56.774Z,20.73
2023-03-24T13:26:34.390Z,20.67
2023-03-24T13:29:41.942Z,20.55
2023-03-24T13:32:24.120Z,20.53
2023-03-24T13:35:13.946Z,20.56
2023-03-24T13:37:49.889Z,20.50
2023-03-24T13:40:25.832Z,20.50
2023-03-24T13:43:00.166Z,20.51
2023-03-24T13:45:32.890Z,20.56
2023-03-24T13:48:10.691Z,20.63
2023-03-24T13:50:57.340Z,20.52
2023-03-24T13:53:31.888Z,20.43
2023-03-24T13:56:01.702Z,20.36
2023-03-24T13:58:51.128Z,20.32
2023-03-24T14:01:34.240Z,20.28
2023-03-24T14:04:23.782Z,20.29
2023-03-24T14:07:00.489Z,20.37
2023-03-24T14:09:31.151Z,20.43
2023-03-24T14:11:59.658Z,20.46
2023-03-24T14:14:29.544Z,20.50
2023-03-24T14:17:16.830Z,20.54
2023-03-24T14:20:10.740Z,20.53
2023-03-24T14:22:49.844Z,20.65
2023-03-24T14:25:22.124Z,20.68
2023-03-24T14:28:15.470Z,20.69
2023-03-24T14:31:16.271Z,20.58
2023-03-24T14:33:54.083Z,20.44
2023-03-24T14:36:27.266Z,20.32
2023-03-24T14:38:56.210Z,20.29
2023-03-24T14:41:31.551Z,20.31
2023-03-24T14:44:01.091Z,20.38
2023-03-24T14:46:41.271Z,20.43
2023-03-24T14:49:32.873Z,20.44
2023-03-24T14:52:20.415Z,20.34
2023-03-24T14:54:54.207Z,20.18
2023-03-24T14:57:40.955Z,20.11
2023-03-24T15:00:21.618Z,20.03
2023-03-24T15:02:59.123Z,19.92
2023-03-24T15:05:28.707Z,19.85
2023-03-24T15:08:21.449Z,19.86
2023-03-24T15:10:57.009Z,19.85
2023-03-24T15:13:30.367Z,19.83
2023-03-24T15:16:00.637Z,19.84
2023-03-24T15:18:29.107Z,19.80
2023-03-24T15:20:57.896Z,19.72
2023-03-24T15:23:28.547Z,19.65
2023-03-24T15:25:57.132Z,19.57
2023-03-24T15:28:27.921Z,19.52
2023-03-24T15:30:59.548Z,19.49
2023-03-24T15:33:31.288Z,19.46
2023-03-24T15:36:02.475Z,19.43
2023-03-24T15:38:33.789Z,19.39
2023-03-24T15:41:09.626Z,19.35
2023-03-24T15:43:46.579Z,19.30
2023-03-24T15:46:30.561Z,19.23
2023-03-24T15:49:00.434Z,19.17
2023-03-24T15:51:51.042Z,19.10
2023-03-24T15:54:32.131Z,19.02
2023-03-24T15:57:09.554Z,18.92
2023-03-24T15:59:38.283Z,18.82
2023-03-24T16:02:34.096Z,18.72
2023-03-24T16:05:12.762Z,18.55
2023-03-24T16:07:42.343Z,18.41
2023-03-24T16:10:33.777Z,18.28
2023-03-24T16:13:22.091Z,18.15
2023-03-24T16:16:22.006Z,18.05
2023-03-24T16:18:51.143Z,17.96
2023-03-24T16:21:25.462Z,17.88
2023-03-24T16:23:56.030Z,17.80
2023-03-24T16:26:26.868Z,17.71
2023-03-24T16:29:00.740Z,17.60
2023-03-24T16:31:32.713Z,17.47
2023-03-24T16:34:01.144Z,17.35
2023-03-24T16:36:29.647Z,17.23
2023-03-24T16:39:00.783Z,17.12
2023-03-24T16:41:29.274Z,17.02
2023-03-24T16:43:57.443Z,16.92
2023-03-24T16:46:25.726Z,16.83
2023-03-24T16:48:54.756Z,16.74
2023-03-24T16:51:22.990Z,16.65
2023-03-24T16:53:51.368Z,16.57
2023-03-24T16:56:22.097Z,16.48
2023-03-24T16:58:55.387Z,16.39
2023-03-24T17:01:36.114Z,16.29
2023-03-24T17:04:10.410Z,16.21
2023-03-24T17:06:44.379Z,16.14
2023-03-24T17:09:13.062Z,16.06
2023-03-24T17:11:46.697Z,15.99
2023-03-24T17:14:14.969Z,15.90
2023-03-24T17:16:45.187Z,15.81
2023-03-24T17:19:18.832Z,15.74
2023-03-24T17:21:53.510Z,15.66
2023-03-24T17:24:24.331Z,15.56
2023-03-24T17:26:53.051Z,15.48
2023-03-24T17:29:23.013Z,15.41
2023-03-24T17:31:53.380Z,15.35
2023-03-24T17:34:22.154Z,15.29
2023-03-24T17:36:51.816Z,15.23
2023-03-24T17:39:21.437Z,15.17
2023-03-24T17:41:50.073Z,15.14
2023-03-24T17:44:18.707Z,15.09
2023-03-24T17:46:46.941Z,15.00
2023-03-24T17:49:14.984Z,14.92
2023-03-24T17:51:43.416Z,14.84
2023-03-24T17:54:12.603Z,14.80
2023-03-24T17:56:41.312Z,14.79
2023-03-24T17:59:09.389Z,14.75
2023-03-24T18:01:39.606Z,14.72
2023-03-24T18:04:08.664Z,14.79
2023-03-24T18:06:38.670Z,14.82
2023-03-24T18:09:07.641Z,14.84
2023-03-24T18:11:36.715Z,14.99
2023-03-24T18:14:04.932Z,15.09
2023-03-24T18:16:35.763Z,15.14
2023-03-24T18:19:04.179Z,15.10
2023-03-24T18:21:36.298Z,15.02
2023-03-24T18:24:04.716Z,14.96
2023-03-24T18:26:33.843Z,14.99
2023-03-24T18:29:02.070Z,14.97
2023-03-24T18:31:32.513Z,14.98
2023-03-24T18:34:01.192Z,14.96
2023-03-24T18:36:31.316Z,14.90
2023-03-24T18:39:04.640Z,14.81
2023-03-24T18:41:37.180Z,14.73
2023-03-24T18:44:11.893Z,14.61
2023-03-24T18:46:40.466Z,14.53
2023-03-24T18:49:13.358Z,14.45
2023-03-24T18:51:43.644Z,14.37
2023-03-24T18:54:13.757Z,14.28
2023-03-24T18:56:42.459Z,14.16
2023-03-24T18:59:12.400Z,14.04
2023-03-24T19:01:40.878Z,13.92
2023-03-24T19:04:09.554Z,13.79
2023-03-24T19:06:42.499Z,13.66
2023-03-24T19:09:20.546Z,13.56
2023-03-24T19:11:49.934Z,13.43
2023-03-24T19:14:19.001Z,13.30
2023-03-24T19:16:47.227Z,13.18
2023-03-24T19:19:18.682Z,13.04
2023-03-24T19:21:47.483Z,12.94
2023-03-24T19:24:15.729Z,12.82
2023-03-24T19:26:43.901Z,12.71
2023-03-24T19:29:12.078Z,12.66
2023-03-24T19:31:41.044Z,12.55
2023-03-24T19:34:09.114Z,12.47
2023-03-24T19:36:41.763Z,12.36
2023-03-24T19:39:13.817Z,12.27
2023-03-24T19:41:42.201Z,12.19
2023-03-24T19:44:10.580Z,12.10
2023-03-24T19:46:38.840Z,12.02
2023-03-24T19:49:07.178Z,11.95
2023-03-24T19:51:35.558Z,11.89
2023-03-24T19:54:03.841Z,11.82
2023-03-24T19:56:31.903Z,11.75
2023-03-24T19:58:59.936Z,11.68
2023-03-24T20:01:29.821Z,11.63
2023-03-24T20:03:58.094Z,11.59
2023-03-24T20:06:26.484Z,11.56
2023-03-24T20:08:54.488Z,11.57
2023-03-24T20:11:22.642Z,11.60
2023-03-24T20:13:50.862Z,11.60
2023-03-24T20:16:19.214Z,11.60
2023-03-24T20:18:47.437Z,11.59
2023-03-24T20:21:20.655Z,11.59
2023-03-24T20:23:49.955Z,11.59
2023-03-24T20:26:20.581Z,11.59
2023-03-24T20:28:49.308Z,11.58
2023-03-24T20:31:18.006Z,11.54
2023-03-24T20:33:46.515Z,11.50
2023-03-24T20:36:14.686Z,11.47
2023-03-24T20:38:42.949Z,11.44
2023-03-24T20:41:11.287Z,11.39
2023-03-24T20:43:39.562Z,11.34
2023-03-24T20:46:09.707Z,11.32
2023-03-24T20:48:38.141Z,11.31
2023-03-24T20:51:06.597Z,11.32
2023-03-24T20:53:36.098Z,11.31
2023-03-24T20:56:07.862Z,11.29
2023-03-24T20:58:38.102Z,11.26
2023-03-24T21:01:09.088Z,11.23
2023-03-24T21:03:37.750Z,11.18
2023-03-24T21:06:06.227Z,11.12
2023-03-24T21:08:34.195Z,11.07
2023-03-24T21:11:02.224Z,11.05
2023-03-24T21:13:37.182Z,11.03
2023-03-24T21:16:08.785Z,11.00
2023-03-24T21:18:38.764Z,10.96
2023-03-24T21:21:12.752Z,10.93
2023-03-24T21:23:43.208Z,10.88
2023-03-24T21:26:18.200Z,10.83
2023-03-24T21:28:46.665Z,10.78
2023-03-24T21:31:27.591Z,10.72
2023-03-24T21:33:57.320Z,10.65
2023-03-24T21:36:30.144Z,10.60
2023-03-24T21:38:59.385Z,10.56
2023-03-24T21:41:29.010Z,10.54
2023-03-24T21:44:00.845Z,10.51
2023-03-24T21:46:32.333Z,10.46
2023-03-24T21:49:01.176Z,10.41
2023-03-24T21:51:37.027Z,10.37
2023-03-24T21:54:10.098Z,10.33
2023-03-24T21:56:38.421Z,10.31
2023-03-24T21:59:07.135Z,10.29
2023-03-24T22:01:36.486Z,10.28
2023-03-24T22:04:05.965Z,10.29
2023-03-24T22:06:38.140Z,10.29
2023-03-24T22:09:08.417Z,10.29
2023-03-24T22:11:37.282Z,10.27
2023-03-24T22:14:05.505Z,10.26
2023-03-24T22:16:33.835Z,10.29
2023-03-24T22:19:01.970Z,10.31
2023-03-24T22:21:30.233Z,10.34
2023-03-24T22:23:58.237Z,10.37
2023-03-24T22:26:26.478Z,10.39
2023-03-24T22:28:56.360Z,10.41
2023-03-24T22:31:24.846Z,10.43
2023-03-24T22:33:53.956Z,10.46
2023-03-24T22:36:22.214Z,10.48
2023-03-24T22:38:50.500Z,10.49
2023-03-24T22:41:18.609Z,10.51
2023-03-24T22:43:47.226Z,10.52
2023-03-24T22:46:15.596Z,10.54
2023-03-24T22:48:44.069Z,10.55
2023-03-24T22:51:17.105Z,10.56
2023-03-24T22:53:46.373Z,10.57
2023-03-24T22:56:15.787Z,10.55
2023-03-24T22:58:44.268Z,10.53
2023-03-24T23:01:12.650Z,10.52
2023-03-24T23:03:41.034Z,10.50
2023-03-24T23:06:11.271Z,10.49
2023-03-24T23:08:40.224Z,10.48
2023-03-24T23:11:12.246Z,10.47
2023-03-24T23:13:41.687Z,10.48
2023-03-24T23:16:10.062Z,10.50
2023-03-24T23:18:38.635Z,10.52
2023-03-24T23:21:17.394Z,10.53
2023-03-24T23:23:45.671Z,10.54
2023-03-24T23:26:26.231Z,10.57
2023-03-24T23:28:55.271Z,10.58
2023-03-24T23:31:26.039Z,10.59
2023-03-24T23:33:56.965Z,10.61
2023-03-24T23:36:26.592Z,10.62
2023-03-24T23:38:55.088Z,10.64
2023-03-24T23:41:24.541Z,10.66
2023-03-24T23:43:53.784Z,10.67
2023-03-24T23:46:23.974Z,10.69
2023-03-24T23:48:52.905Z,10.72
2023-03-24T23:51:21.400Z,10.76
2023-03-24T23:53:50.085Z,10.79
2023-03-24T23:56:21.803Z,10.81
2023-03-24T23:58:49.968Z,10.82
